Humphreys, Missouri
Current Conditions -  °F | °C
As of 7:35 PM on Wednesday 26 Nov 2014 (Local Time) from KIRK Reporting Station
Light Snow Light Snow  
Wind Chill: 23°   Ceiling: 700
Heat Index: 32°   Visibility: 2mi
Dew Point: 31°   Wind: 13mph
Humidity: 96%   Direction: 360°N
Pressure: 30.15"   Gusts: NA
Location:  40.13°N, 93.32°W
Report Text: KIRK 270135Z AUTO 36011KT 2SM -SN BR OVC007 00/M01 A3015 RMK AO2 P0000 T00001006
Loading
Personal Weather Stations






























Interactive Weather Map New forecast layout! Learn more

10-Day Weather Forecast

Advertisements
Track Severe Weather on mobile